ADDS METAR Data INFO
IDs: Format: Raw Decoded Include TAF

Data at: 1250 UTC 19 Oct 2017

KBWG 191229Z AUTO 00000KT 3SM BR CLR 06/06 A3029 RMK AO2 T00610061
KBWG 191227Z AUTO 00000KT 1 3/4SM BR CLR 06/06 A3029 RMK AO2 T00610056
KBWG 191225Z AUTO 00000KT 3/4SM BR CLR 06/06 A3029 RMK AO2 T00610056
KBWG 191213Z AUTO 00000KT 1/2SM FG VV002 06/05 A3029 RMK AO2 VIS M1/4V5 T00560050
KBWG 191211Z AUTO 00000KT 2SM BR CLR 06/05 A3029 RMK AO2 VIS 1/2V5 T00560050
KBWG 191153Z AUTO 00000KT 3SM BR CLR 05/04 A3028 RMK AO2 SLP256 T00500039 10078 20050 52012
KBWG 191128Z AUTO 00000KT 5SM BR CLR 06/05 A3029 RMK AO2 T00560050
KBWG 191126Z AUTO 00000KT 1 1/2SM BR CLR 06/05 A3029 RMK AO2 T00560050
KBWG 191117Z AUTO 00000KT 3/4SM BR CLR 06/04 A3028 RMK AO2 VIS 1/4V5 T00560044
KBWG 191113Z AUTO 00000KT 1 3/4SM BR CLR 05/04 A3028 RMK AO2 T00500044
KBWG 191101Z AUTO 00000KT 3SM BR CLR 05/04 A3028 RMK AO2 T00500044
KBWG 191053Z AUTO 00000KT 1SM BR CLR 06/06 A3027 RMK AO2 SLP251 T00560056
KBWG 191051Z AUTO 00000KT 1 1/4SM BR CLR 06/06 A3027 RMK AO2
KBWG 190953Z AUTO 00000KT 10SM CLR 06/05 A3026 RMK AO2 SLP246 T00560050
KBWG 190939Z AUTO 00000KT 3SM BR CLR 06/06 A3026 RMK AO2 T00610056
KBWG 190927Z AUTO 00000KT 1 1/2SM BR CLR 06/05 A3025 RMK AO2 VIS 3/4V5 T00560050
KBWG 190853Z AUTO 00000KT 8SM CLR 06/06 A3025 RMK AO2 SLP242 T00610061 53003
KBWG 190833Z AUTO 00000KT 6SM BR CLR 06/06 A3024 RMK AO2 T00560056
KBWG 190825Z AUTO 00000KT 1 1/2SM BR CLR 07/07 A3024 RMK AO2 T00670067
KBWG 190815Z AUTO 00000KT 3/4SM BR CLR 07/06 A3023 RMK AO2 T00670061
KBWG 190812Z AUTO 00000KT 1 1/2SM BR CLR 07/06 A3023 RMK AO2 T00670061
KBWG 190802Z AUTO 00000KT 9SM CLR 07/06 A3024 RMK AO2 T00670056
KBWG 190753Z AUTO 00000KT 2SM BR CLR 07/06 A3024 RMK AO2 SLP239 T00670061
KBWG 190747Z AUTO 00000KT 1 3/4SM BR CLR 07/06 A3024 RMK AO2 VIS 3/4V5
KBWG 190653Z AUTO 00000KT 10SM CLR 08/07 A3023 RMK AO2 SLP236 T00780072
KBWG 190553Z AUTO 00000KT 10SM CLR 08/07 A3024 RMK AO2 SLP238 T00780072 10150 20067 402170039 53004
KBWG 190453Z AUTO 00000KT 10SM CLR 08/07 A3022 RMK AO2 SLP232 T00830072
KBWG 190353Z AUTO 00000KT 10SM CLR 12/08 A3022 RMK AO2 SLP232 T01170083
KBWG 190253Z AUTO 00000KT 10SM CLR 12/08 A3023 RMK AO2 SLP234 T01170083 50001
KBWG 190153Z AUTO 00000KT 10SM CLR 12/08 A3023 RMK AO2 SLP236 T01170083
KBWG 190053Z AUTO 00000KT 10SM CLR 13/08 A3023 RMK AO2 SLP237 T01280083
KBWG 182353Z AUTO 14003KT 10SM CLR 15/08 A3022 RMK AO2 SLP235 T01500078 10217 20150 55002
KBWG 182253Z AUTO 16005KT 10SM CLR 19/07 A3022 RMK AO2 SLP232 T01890072
KBWG 182153Z AUTO 20007KT 10SM CLR 21/07 A3022 RMK AO2 SLP233 T02110072
KBWG 182053Z AUTO 19007KT 10SM CLR 22/06 A3023 RMK AO2 SLP235 T02170061 56019
KBWG 181953Z AUTO 18007KT 150V220 10SM CLR 22/06 A3024 RMK AO2 SLP240 T02170061
KBWG 181853Z AUTO 20010KT 10SM CLR 22/07 A3026 RMK AO2 SLP246 T02170067
KBWG 181753Z AUTO 17010KT 10SM CLR 21/08 A3029 RMK AO2 SLP254 T02110078 10211 20044 58018
KBWG 181653Z AUTO 24008KT 10SM CLR 20/08 A3032 RMK AO2 SLP264 T02000078
KBWG 181553Z AUTO 19009KT 10SM CLR 19/09 A3034 RMK AO2 SLP272 T01890094
KBWG 181453Z AUTO VRB05KT 10SM CLR 16/10 A3034 RMK AO2 SLP274 T01560100 51012
KBWG 181353Z AUTO 00000KT 10SM CLR 10/08 A3034 RMK AO2 SLP274 T01000083
KBWG 181253Z AUTO 00000KT 10SM CLR 06/06 A3032 RMK AO2 SLP268 T00610061
KBWG 181153Z AUTO 00000KT 9SM CLR 04/04 A3031 RMK AO2 SLP263 T00440039 10072 20039 51012
KBWG 181128Z AUTO 00000KT 10SM CLR 04/03 A3030 RMK AO2 T00390028
KBWG 181121Z AUTO 00000KT 2 1/2SM BR CLR 04/03 A3030 RMK AO2 T00390033
KBWG 181111Z AUTO 00000KT 1 1/4SM BR CLR 04/04 A3030 RMK AO2 T00440039
KBWG 181053Z AUTO 00000KT 9SM CLR 04/04 A3030 RMK AO2 SLP259 T00440044
KBWG 181035Z AUTO 00000KT 4SM BR CLR 05/04 A3029 RMK AO2 T00500044
KBWG 181033Z AUTO 00000KT 1 1/2SM BR CLR 05/05 A3029 RMK AO2 T00500050
KBWG 181024Z AUTO 00000KT 3/4SM BR CLR 04/04 A3029 RMK AO2 T00440044
KBWG 181020Z AUTO 00000KT 1 3/4SM BR CLR 04/04 A3029 RMK AO2 T00440039
KBWG 180953Z AUTO 00000KT 9SM CLR 04/03 A3028 RMK AO2 SLP255 T00390033
KBWG 180945Z AUTO 00000KT 2SM BR CLR 04/04 A3028 RMK AO2 VIS 3/4V5 T00440039
KBWG 180941Z AUTO 00000KT 1SM BR CLR 04/04 A3028 RMK AO2 T00440039
KBWG 180928Z AUTO 00000KT 1/2SM FG CLR 05/04 A3028 RMK AO2 T00500044
KBWG 180919Z AUTO 00000KT 1SM BR CLR 05/04 A3027 RMK AO2 T00500044
KBWG 180908Z AUTO 00000KT 1/2SM FG CLR 05/04 A3027 RMK AO2 T00500044
KBWG 180904Z AUTO 00000KT 1SM BR CLR 05/04 A3027 RMK AO2 VIS 1/2V1 1/2 T00500044
KBWG 180853Z AUTO 00000KT 3/4SM BR CLR 05/04 A3027 RMK AO2 SLP249 T00500044 57002
KBWG 180850Z AUTO 00000KT 3/4SM BR CLR 05/04 A3027 RMK AO2
KBWG 180846Z AUTO 00000KT 1 3/4SM BR CLR 05/04 A3027 RMK AO2 T00500044
KBWG 180810Z AUTO 00000KT 9SM CLR 06/06 A3027 RMK AO2 T00610056
KBWG 180803Z AUTO 00000KT 2SM BR CLR 06/06 A3027 RMK AO2 T00610056
KBWG 180753Z AUTO 00000KT 1SM BR CLR 06/06 A3027 RMK AO2 SLP249 T00610056
KBWG 180748Z AUTO 00000KT 1 3/4SM BR FEW002 06/06 A3027 RMK AO2
KBWG 180742Z AUTO 00000KT 7SM FEW002 06/06 A3027 RMK AO2 T00610056
KBWG 180735Z AUTO 00000KT 2 1/2SM BR FEW002 06/06 A3027 RMK AO2 VIS 3/4V5 T00560056
KBWG 180733Z AUTO 00000KT 1SM BR VV002 06/06 A3027 RMK AO2 VIS 1/4V5 T00610056
KBWG 180722Z AUTO 00000KT 1/2SM FG VV002 06/05 A3027 RMK AO2 T00560050
KBWG 180719Z AUTO 00000KT 1SM BR VV002 06/05 A3027 RMK AO2 T00560050
KBWG 180717Z AUTO 00000KT 1 3/4SM BR FEW002 06/05 A3027 RMK AO2 T00560050
KBWG 180658Z AUTO 00000KT 4SM BR CLR 06/06 A3027 RMK AO2 T00560056
KBWG 180655Z AUTO 00000KT 1 1/2SM BR CLR 06/06 A3027 RMK AO2 T00560056
KBWG 180653Z AUTO 00000KT 3/4SM BR CLR 06/06 A3027 RMK AO2 SLP250 T00560056
KBWG 180644Z AUTO 00000KT 1SM BR CLR 06/06 A3028 RMK AO2 VIS 1/2V5 T00610056
KBWG 180633Z AUTO 00000KT 2 1/2SM BR CLR 07/07 A3028 RMK AO2 T00720067
KBWG 180617Z AUTO 00000KT 8SM CLR 07/07 A3028 RMK AO2 T00720067
KBWG 180610Z AUTO 00000KT 2SM BR CLR 07/07 A3028 RMK AO2 T00720067
KBWG 180602Z AUTO 00000KT 1 1/4SM BR CLR 07/07 A3028 RMK AO2 T00720067
KBWG 180553Z AUTO 00000KT 1 1/2SM BR CLR 07/07 A3028 RMK AO2 SLP252 T00670067 10139 20067 402060039 55001
KBWG 180453Z AUTO 00000KT 10SM CLR 07/06 A3028 RMK AO2 SLP252 T00670056
KBWG 180353Z AUTO 00000KT 10SM CLR 08/07 A3028 RMK AO2 SLP254 T00830072
KBWG 180253Z AUTO 00000KT 10SM CLR 09/08 A3028 RMK AO2 SLP254 T00890078 53004
KBWG 180153Z AUTO 00000KT 10SM CLR 10/07 A3028 RMK AO2 SLP253 T01000072
KBWG 180053Z AUTO 00000KT 10SM CLR 12/08 A3027 RMK AO2 SLP252 T01220078